Shacktown, North Carolina
Current Conditions -  °F | °C
As of 6:54 AM on Sunday 21 Dec 2014 (Local Time) from KINT Reporting Station
Haze Haze  
Wind Chill: 38°   Ceiling: 2400
Heat Index: 38°   Visibility: 6mi
Dew Point: 33°   Wind: 3mph
Humidity: 83%   Direction: 40°NE
Pressure: 30.27"   Gusts: NA
Location:  36.1267°N, 80.6582°W
Report Text: KINT 211154Z 04003KT 6SM HZ OVC024 03/01 A3027 RMK AO2 SLP254 T00330006 10039 20028 53009
Loading
Personal Weather Stations






























Interactive Weather Map New forecast layout! Learn more

10-Day Weather Forecast

Advertisements
Track Severe Weather on mobile